createdAt,value
2023-02-15T00:00:07.014Z,96566.40
2023-02-15T00:02:33.769Z,96565.60
2023-02-15T00:05:00.356Z,96560.80
2023-02-15T00:07:27.026Z,96559.20
2023-02-15T00:09:53.614Z,96559.20
2023-02-15T00:12:20.260Z,96557.20
2023-02-15T00:14:46.952Z,96555.20
2023-02-15T00:17:13.627Z,96554.40
2023-02-15T00:19:41.055Z,96551.20
2023-02-15T00:22:08.328Z,96549.00
2023-02-15T00:24:34.956Z,96548.20
2023-02-15T00:27:01.550Z,96552.40
2023-02-15T00:29:29.203Z,96549.60
2023-02-15T00:31:55.926Z,96549.80
2023-02-15T00:34:27.674Z,96553.60
2023-02-15T00:36:54.523Z,96550.60
2023-02-15T00:39:21.477Z,96553.80
2023-02-15T00:41:48.265Z,96553.60
2023-02-15T00:44:16.001Z,96556.00
2023-02-15T00:46:43.104Z,96557.00
2023-02-15T00:49:10.509Z,96547.00
2023-02-15T00:51:38.288Z,96548.20
2023-02-15T00:54:06.336Z,96544.60
2023-02-15T00:56:33.380Z,96539.20
2023-02-15T00:59:00.143Z,96534.60
2023-02-15T01:01:27.389Z,96534.60
2023-02-15T01:03:54.737Z,96534.40
2023-02-15T01:06:22.010Z,96530.40
2023-02-15T01:08:49.229Z,96529.00
2023-02-15T01:11:50.301Z,96526.80
2023-02-15T01:14:10.528Z,96522.20
2023-02-15T01:16:38.795Z,96517.60
2023-02-15T01:19:06.963Z,96513.60
2023-02-15T01:21:35.501Z,96513.60
2023-02-15T01:24:03.880Z,96507.20
2023-02-15T01:26:30.472Z,96508.80
2023-02-15T01:28:58.752Z,96506.00
2023-02-15T01:31:25.566Z,96510.20
2023-02-15T01:33:52.264Z,96507.00
2023-02-15T01:36:19.089Z,96509.40
2023-02-15T01:38:46.799Z,96505.60
2023-02-15T01:41:27.611Z,96502.40
2023-02-15T01:44:01.420Z,96500.60
2023-02-15T01:46:53.185Z,96497.40
2023-02-15T01:49:24.801Z,96493.20
2023-02-15T01:51:53.933Z,96495.00
2023-02-15T01:54:33.957Z,96493.80
2023-02-15T01:57:10.582Z,96493.60
2023-02-15T01:59:41.244Z,96493.40
2023-02-15T02:02:10.854Z,96493.40
2023-02-15T02:04:51.044Z,96499.20
2023-02-15T02:07:22.847Z,96490.80
2023-02-15T02:09:50.148Z,96490.60
2023-02-15T02:12:19.304Z,96485.00
2023-02-15T02:14:48.431Z,96479.40
2023-02-15T02:17:49.386Z,96479.60
2023-02-15T02:20:49.804Z,96470.00
2023-02-15T02:23:48.166Z,96470.20
2023-02-15T02:26:55.426Z,96471.80
2023-02-15T02:30:05.890Z,96475.60
2023-02-15T02:33:14.263Z,96479.00
2023-02-15T02:36:20.715Z,96483.00
2023-02-15T02:39:22.477Z,96475.60
2023-02-15T02:42:01.274Z,96474.00
2023-02-15T02:45:00.590Z,96472.40
2023-02-15T02:47:41.396Z,96470.80
2023-02-15T02:50:19.397Z,96472.40
2023-02-15T02:52:49.989Z,96472.40
2023-02-15T02:55:36.053Z,96466.20
2023-02-15T02:58:30.993Z,96462.20
2023-02-15T03:01:06.737Z,96468.00
2023-02-15T03:03:39.980Z,96467.20
2023-02-15T03:06:20.517Z,96465.20
2023-02-15T03:08:56.512Z,96458.20
2023-02-15T03:11:23.216Z,96462.40
2023-02-15T03:13:51.034Z,96462.00
2023-02-15T03:16:26.829Z,96459.40
2023-02-15T03:19:11.196Z,96461.80
2023-02-15T03:21:59.042Z,96457.60
2023-02-15T03:24:43.642Z,96465.80
2023-02-15T03:27:27.478Z,96470.00
2023-02-15T03:30:01.979Z,96464.40
2023-02-15T03:32:33.962Z,96464.20
2023-02-15T03:35:00.781Z,96461.80
2023-02-15T03:37:36.571Z,96458.20
2023-02-15T03:40:42.713Z,96457.60
2023-02-15T03:43:37.846Z,96458.00
2023-02-15T03:46:38.469Z,96462.60
2023-02-15T03:49:12.294Z,96466.60
2023-02-15T03:51:43.879Z,96468.40
2023-02-15T03:54:45.088Z,96466.80
2023-02-15T03:57:42.392Z,96468.00
2023-02-15T04:00:41.840Z,96465.40
2023-02-15T04:03:23.152Z,96463.80
2023-02-15T04:05:50.119Z,96463.60
2023-02-15T04:08:16.710Z,96460.20
2023-02-15T04:10:57.230Z,96459.00
2023-02-15T04:13:34.709Z,96461.20
2023-02-15T04:16:05.015Z,96465.40
2023-02-15T04:18:54.662Z,96463.80
2023-02-15T04:21:42.634Z,96467.80
2023-02-15T04:24:29.373Z,96464.60
2023-02-15T04:26:59.374Z,96471.20
2023-02-15T04:29:27.818Z,96470.00
2023-02-15T04:31:57.830Z,96474.20
2023-02-15T04:34:24.525Z,96470.40
2023-02-15T04:36:51.357Z,96466.20
2023-02-15T04:39:19.568Z,96465.20
2023-02-15T04:41:46.873Z,96464.40
2023-02-15T04:44:13.665Z,96468.80
2023-02-15T04:46:40.219Z,96467.80
2023-02-15T04:49:06.906Z,96464.20
2023-02-15T04:51:33.531Z,96462.80
2023-02-15T04:54:00.358Z,96456.00
2023-02-15T04:56:26.921Z,96456.80
2023-02-15T04:58:53.660Z,96460.80
2023-02-15T05:01:20.290Z,96460.80
2023-02-15T05:03:47.070Z,96461.60
2023-02-15T05:06:13.707Z,96458.80
2023-02-15T05:08:40.290Z,96458.60
2023-02-15T05:11:06.856Z,96467.40
2023-02-15T05:13:33.564Z,96472.20
2023-02-15T05:16:00.621Z,96470.20
2023-02-15T05:18:27.596Z,96466.20
2023-02-15T05:20:54.229Z,96465.00
2023-02-15T05:23:20.899Z,96458.00
2023-02-15T05:26:10.497Z,96462.60
2023-02-15T05:28:38.694Z,96461.20
2023-02-15T05:31:18.419Z,96466.20
2023-02-15T05:33:45.941Z,96470.00
2023-02-15T05:36:13.216Z,96474.60
2023-02-15T05:38:40.379Z,96479.40
2023-02-15T05:41:08.905Z,96473.80
2023-02-15T05:43:36.073Z,96473.60
2023-02-15T05:46:04.469Z,96471.00
2023-02-15T05:48:32.061Z,96468.60
2023-02-15T05:51:10.112Z,96469.60
2023-02-15T05:53:38.949Z,96469.80
2023-02-15T05:56:08.753Z,96473.20
2023-02-15T05:58:41.536Z,96471.20
2023-02-15T06:01:10.174Z,96472.60
2023-02-15T06:03:36.804Z,96475.00
2023-02-15T06:06:05.484Z,96477.20
2023-02-15T06:08:33.439Z,96479.40
2023-02-15T06:11:00.251Z,96478.80
2023-02-15T06:13:27.385Z,96480.60
2023-02-15T06:15:54.173Z,96484.20
2023-02-15T06:18:20.947Z,96480.40
2023-02-15T06:20:48.355Z,96475.20
2023-02-15T06:23:15.788Z,96476.80
2023-02-15T06:25:44.020Z,96479.20
2023-02-15T06:28:10.656Z,96492.20
2023-02-15T06:30:37.434Z,96490.60
2023-02-15T06:33:04.059Z,96490.20
2023-02-15T06:35:30.737Z,96492.80
2023-02-15T06:37:57.319Z,96496.60
2023-02-15T06:40:23.969Z,96491.00
2023-02-15T06:42:50.689Z,96492.00
2023-02-15T06:45:17.486Z,96491.40
2023-02-15T06:47:44.378Z,96500.80
2023-02-15T06:50:11.949Z,96501.60
2023-02-15T06:52:38.603Z,96496.20
2023-02-15T06:55:06.234Z,96499.60
2023-02-15T06:57:34.295Z,96504.20
2023-02-15T07:00:01.108Z,96502.00
2023-02-15T07:02:27.967Z,96504.20
2023-02-15T07:04:54.753Z,96504.40
2023-02-15T07:07:21.447Z,96503.20
2023-02-15T07:09:48.225Z,96505.80
2023-02-15T07:12:33.915Z,96502.80
2023-02-15T07:15:00.730Z,96500.20
2023-02-15T07:17:37.094Z,96500.20
2023-02-15T07:20:08.912Z,96503.80
2023-02-15T07:22:37.415Z,96504.40
2023-02-15T07:25:09.483Z,96507.00
2023-02-15T07:27:36.564Z,96506.60
2023-02-15T07:30:04.814Z,96500.80
2023-02-15T07:32:33.454Z,96495.80
2023-02-15T07:35:00.796Z,96500.60
2023-02-15T07:37:28.729Z,96497.40
2023-02-15T07:39:55.361Z,96497.40
2023-02-15T07:42:23.073Z,96493.80
2023-02-15T07:44:50.218Z,96490.80
2023-02-15T07:47:16.904Z,96493.60
2023-02-15T07:49:43.543Z,96494.00
2023-02-15T07:52:10.306Z,96494.60
2023-02-15T07:54:36.869Z,96496.20
2023-02-15T07:57:03.803Z,96487.80
2023-02-15T07:59:30.500Z,96485.80
2023-02-15T08:01:58.253Z,96478.00
2023-02-15T08:04:25.136Z,96476.80
2023-02-15T08:06:55.461Z,96475.40
2023-02-15T08:09:22.834Z,96472.60
2023-02-15T08:11:50.910Z,96476.00
2023-02-15T08:14:23.199Z,96470.40
2023-02-15T08:16:53.435Z,96471.80
2023-02-15T08:19:21.616Z,96468.80
2023-02-15T08:21:54.832Z,96468.00
2023-02-15T08:24:24.688Z,96468.40
2023-02-15T08:26:52.665Z,96471.80
2023-02-15T08:29:25.801Z,96470.40
2023-02-15T08:32:00.098Z,96464.80
2023-02-15T08:34:26.927Z,96465.60
2023-02-15T08:36:53.693Z,96462.20
2023-02-15T08:39:20.471Z,96464.80
2023-02-15T08:41:49.377Z,96463.80
2023-02-15T08:44:19.307Z,96463.00
2023-02-15T08:46:48.368Z,96461.40
2023-02-15T08:49:20.298Z,96459.40
2023-02-15T08:51:48.666Z,96458.60
2023-02-15T08:54:19.277Z,96457.60
2023-02-15T08:56:46.577Z,96459.40
2023-02-15T08:59:20.442Z,96455.80
2023-02-15T09:01:49.770Z,96456.00
2023-02-15T09:04:17.125Z,96458.40
2023-02-15T09:06:48.357Z,96460.40
2023-02-15T09:09:17.376Z,96458.80
2023-02-15T09:11:48.427Z,96457.00
2023-02-15T09:14:25.441Z,96456.80
2023-02-15T09:16:53.630Z,96455.20
2023-02-15T09:19:22.961Z,96454.80
2023-02-15T09:21:49.647Z,96456.00
2023-02-15T09:24:18.617Z,96453.40
2023-02-15T09:26:48.705Z,96454.80
2023-02-15T09:29:16.530Z,96445.60
2023-02-15T09:31:50.125Z,96436.00
2023-02-15T09:34:22.581Z,96431.20
2023-02-15T09:36:49.887Z,96422.00
2023-02-15T09:39:18.614Z,96415.00
2023-02-15T09:42:16.383Z,96405.80
2023-02-15T09:45:27.979Z,96401.60
2023-02-15T09:48:15.525Z,96403.00
2023-02-15T09:51:20.861Z,96402.60
2023-02-15T09:54:16.621Z,96399.20
2023-02-15T09:56:51.194Z,96395.00
2023-02-15T09:59:34.427Z,96397.00
2023-02-15T10:02:29.599Z,96394.40
2023-02-15T10:05:34.676Z,96396.40
2023-02-15T10:08:28.546Z,96390.40
2023-02-15T10:11:27.361Z,96385.00
2023-02-15T10:14:38.918Z,96386.60
2023-02-15T10:17:33.726Z,96388.00
2023-02-15T10:20:12.049Z,96384.40
2023-02-15T10:22:41.764Z,96380.00
2023-02-15T10:25:42.339Z,96380.20
2023-02-15T10:28:29.919Z,96376.40
2023-02-15T10:31:18.322Z,96375.40
2023-02-15T10:33:45.249Z,96374.00
2023-02-15T10:36:33.756Z,96373.00
2023-02-15T10:39:29.305Z,96371.00
2023-02-15T10:42:33.334Z,96371.40
2023-02-15T10:45:37.135Z,96365.00
2023-02-15T10:48:53.584Z,96365.80
2023-02-15T10:51:35.518Z,96363.20
2023-02-15T10:54:57.317Z,96359.00
2023-02-15T10:57:33.091Z,96362.80
2023-02-15T11:00:30.050Z,96366.00
2023-02-15T11:03:22.360Z,96365.20
2023-02-15T11:06:06.125Z,96360.40
2023-02-15T11:08:39.529Z,96361.00
2023-02-15T11:11:16.376Z,96356.20
2023-02-15T11:13:56.257Z,96354.20
2023-02-15T11:16:55.496Z,96351.80
2023-02-15T11:20:04.558Z,96350.20
2023-02-15T11:22:34.504Z,96347.40
2023-02-15T11:25:05.906Z,96351.80
2023-02-15T11:27:36.509Z,96347.60
2023-02-15T11:30:20.568Z,96338.40
2023-02-15T11:32:52.481Z,96340.60
2023-02-15T11:35:35.256Z,96340.00
2023-02-15T11:38:17.575Z,96342.00
2023-02-15T11:40:57.715Z,96333.20
2023-02-15T11:43:35.180Z,96332.40
2023-02-15T11:46:02.031Z,96330.00
2023-02-15T11:48:31.896Z,96330.80
2023-02-15T11:51:00.041Z,96323.40
2023-02-15T11:53:34.181Z,96314.40
2023-02-15T11:56:01.622Z,96311.80
2023-02-15T11:58:39.009Z,96305.20
2023-02-15T12:01:14.867Z,96303.40
2023-02-15T12:03:53.846Z,96303.20
2023-02-15T12:06:33.620Z,96303.40
2023-02-15T12:09:25.886Z,96298.20
2023-02-15T12:11:52.666Z,96299.60
2023-02-15T12:14:19.350Z,96295.40
2023-02-15T12:16:54.929Z,96289.60
2023-02-15T12:19:41.718Z,96286.80
2023-02-15T12:22:39.662Z,96280.60
2023-02-15T12:25:42.882Z,96282.80
2023-02-15T12:28:40.359Z,96280.00
2023-02-15T12:31:41.077Z,96270.40
2023-02-15T12:34:30.614Z,96268.80
2023-02-15T12:37:03.293Z,96266.60
2023-02-15T12:39:33.032Z,96258.40
2023-02-15T12:42:06.083Z,96255.80
2023-02-15T12:44:36.101Z,96252.60
2023-02-15T12:47:17.752Z,96250.20
2023-02-15T12:50:18.222Z,96252.80
2023-02-15T12:52:49.387Z,96252.00
2023-02-15T12:55:26.644Z,96250.00
2023-02-15T12:58:08.512Z,96249.20
2023-02-15T13:00:36.074Z,96242.20
2023-02-15T13:03:04.338Z,96242.40
2023-02-15T13:05:43.421Z,96240.80
2023-02-15T13:08:16.045Z,96239.80
2023-02-15T13:10:53.313Z,96237.60
2023-02-15T13:13:25.014Z,96230.00
2023-02-15T13:15:55.480Z,96229.40
2023-02-15T13:18:45.985Z,96230.20
2023-02-15T13:21:14.229Z,96232.40
2023-02-15T13:23:49.475Z,96230.80
2023-02-15T13:26:22.521Z,96225.00
2023-02-15T13:28:57.266Z,96218.20
2023-02-15T13:31:25.532Z,96215.20
2023-02-15T13:33:58.297Z,96214.80
2023-02-15T13:36:43.072Z,96211.80
2023-02-15T13:39:16.957Z,96211.80
2023-02-15T13:41:59.658Z,96207.40
2023-02-15T13:44:54.697Z,96206.40
2023-02-15T13:47:56.854Z,96210.00
2023-02-15T13:51:01.719Z,96212.00
2023-02-15T13:53:51.904Z,96215.40
2023-02-15T13:56:40.037Z,96211.40
2023-02-15T13:59:34.200Z,96214.20
2023-02-15T14:02:13.073Z,96216.40
2023-02-15T14:05:32.239Z,96215.00
2023-02-15T14:08:26.690Z,96215.20
2023-02-15T14:11:47.681Z,96212.20
2023-02-15T14:14:58.308Z,96215.40
2023-02-15T14:17:52.545Z,96212.60
2023-02-15T14:20:37.909Z,96212.20
2023-02-15T14:23:41.076Z,96212.40
2023-02-15T14:26:43.955Z,96205.20
2023-02-15T14:29:38.895Z,96204.20
2023-02-15T14:32:14.872Z,96200.80
2023-02-15T14:34:56.454Z,96202.40
2023-02-15T14:37:36.054Z,96201.20
2023-02-15T14:40:28.255Z,96196.00
2023-02-15T14:43:23.004Z,96198.00
2023-02-15T14:46:18.439Z,96195.80
2023-02-15T14:49:26.781Z,96197.20
2023-02-15T14:52:00.324Z,96197.40
2023-02-15T14:54:26.917Z,96191.60
2023-02-15T14:57:02.907Z,96191.40
2023-02-15T15:00:01.042Z,96197.60
2023-02-15T15:02:49.718Z,96199.00
2023-02-15T15:05:37.426Z,96196.00
2023-02-15T15:08:06.456Z,96195.80
2023-02-15T15:10:41.239Z,96197.80
2023-02-15T15:13:32.545Z,96202.80
2023-02-15T15:16:26.775Z,96201.60
2023-02-15T15:18:53.567Z,96199.20
2023-02-15T15:21:51.428Z,96198.00
2023-02-15T15:24:39.756Z,96197.80
2023-02-15T15:27:46.786Z,96200.40
2023-02-15T15:30:19.918Z,96202.00
2023-02-15T15:32:58.830Z,96196.40
2023-02-15T15:35:56.736Z,96197.40
2023-02-15T15:39:10.513Z,96203.80
2023-02-15T15:41:49.953Z,96212.40
2023-02-15T15:45:12.746Z,96210.20
2023-02-15T15:48:07.016Z,96210.80
2023-02-15T15:50:34.905Z,96213.40
2023-02-15T15:53:03.590Z,96211.80
2023-02-15T15:55:35.931Z,96218.80
2023-02-15T15:58:07.243Z,96217.40
2023-02-15T16:00:50.555Z,96226.60
2023-02-15T16:03:27.152Z,96229.00
2023-02-15T16:06:01.401Z,96225.00
2023-02-15T16:08:36.950Z,96222.40
2023-02-15T16:11:15.607Z,96222.40
2023-02-15T16:13:43.855Z,96222.00
2023-02-15T16:16:14.130Z,96231.00
2023-02-15T16:18:43.378Z,96224.80
2023-02-15T16:21:21.345Z,96224.60
2023-02-15T16:24:12.321Z,96234.20
2023-02-15T16:27:28.046Z,96237.40
2023-02-15T16:29:54.647Z,96244.80
2023-02-15T16:32:28.339Z,96247.20
2023-02-15T16:35:04.060Z,96252.60
2023-02-15T16:37:37.599Z,96256.80
2023-02-15T16:40:05.723Z,96259.20
2023-02-15T16:42:32.307Z,96270.80
2023-02-15T16:45:08.889Z,96268.80
2023-02-15T16:47:48.165Z,96267.00
2023-02-15T16:50:37.759Z,96276.20
2023-02-15T16:53:08.411Z,96279.20
2023-02-15T16:55:43.253Z,96276.40
2023-02-15T16:58:17.314Z,96279.40
2023-02-15T17:00:45.114Z,96283.60
2023-02-15T17:03:14.839Z,96284.40
2023-02-15T17:05:48.853Z,96284.20
2023-02-15T17:08:18.222Z,96284.20
2023-02-15T17:11:02.526Z,96280.60
2023-02-15T17:13:30.126Z,96286.80
2023-02-15T17:16:00.305Z,96285.00
2023-02-15T17:18:45.455Z,96290.20
2023-02-15T17:21:20.743Z,96293.40
2023-02-15T17:23:52.997Z,96292.60
2023-02-15T17:26:23.367Z,96294.20
2023-02-15T17:29:00.479Z,96296.00
2023-02-15T17:31:33.262Z,96297.40
2023-02-15T17:34:01.490Z,96298.80
2023-02-15T17:36:31.355Z,96303.40
2023-02-15T17:38:58.019Z,96303.20
2023-02-15T17:41:31.429Z,96301.80
2023-02-15T17:43:58.673Z,96304.60
2023-02-15T17:46:26.430Z,96302.60
2023-02-15T17:48:56.408Z,96309.80
2023-02-15T17:51:24.024Z,96305.20
2023-02-15T17:54:09.520Z,96304.00
2023-02-15T17:56:38.675Z,96300.00
2023-02-15T17:59:07.881Z,96301.40
2023-02-15T18:02:07.357Z,96297.60
2023-02-15T18:04:56.454Z,96306.00
2023-02-15T18:07:42.256Z,96313.00
2023-02-15T18:10:37.645Z,96315.40
2023-02-15T18:13:04.483Z,96316.20
2023-02-15T18:15:31.215Z,96317.20
2023-02-15T18:17:57.952Z,96321.80
2023-02-15T18:20:36.814Z,96319.40
2023-02-15T18:23:03.607Z,96314.20
2023-02-15T18:25:30.215Z,96318.40
2023-02-15T18:27:57.019Z,96316.00
2023-02-15T18:30:27.530Z,96319.00
2023-02-15T18:32:57.110Z,96318.80
2023-02-15T18:35:30.623Z,96323.20
2023-02-15T18:37:59.390Z,96324.20
2023-02-15T18:40:27.887Z,96332.00
2023-02-15T18:42:57.203Z,96329.60
2023-02-15T18:45:28.730Z,96330.20
2023-02-15T18:47:55.505Z,96329.80
2023-02-15T18:50:23.828Z,96330.40
2023-02-15T18:52:51.657Z,96327.00
2023-02-15T18:55:27.893Z,96321.60
2023-02-15T18:57:57.231Z,96314.00
2023-02-15T19:00:34.722Z,96315.60
2023-02-15T19:03:02.825Z,96311.80
2023-02-15T19:05:31.250Z,96314.60
2023-02-15T19:08:00.017Z,96320.40
2023-02-15T19:10:30.582Z,96323.60
2023-02-15T19:12:57.723Z,96323.20
2023-02-15T19:15:27.730Z,96323.20
2023-02-15T19:17:54.991Z,96329.40
2023-02-15T19:20:32.378Z,96331.40
2023-02-15T19:23:01.287Z,96331.80
2023-02-15T19:25:31.601Z,96340.00
2023-02-15T19:27:58.708Z,96334.20
2023-02-15T19:30:31.278Z,96332.20
2023-02-15T19:32:59.232Z,96333.40
2023-02-15T19:35:35.673Z,96331.00
2023-02-15T19:38:07.531Z,96330.40
2023-02-15T19:40:36.327Z,96330.40
2023-02-15T19:43:04.492Z,96332.60
2023-02-15T19:45:32.948Z,96331.60
2023-02-15T19:48:02.511Z,96333.20
2023-02-15T19:50:32.172Z,96339.20
2023-02-15T19:52:59.499Z,96336.40
2023-02-15T19:55:28.623Z,96336.40
2023-02-15T19:57:58.124Z,96335.00
2023-02-15T20:00:29.726Z,96333.80
2023-02-15T20:03:00.160Z,96328.40
2023-02-15T20:05:29.472Z,96330.60
2023-02-15T20:07:56.953Z,96329.80
2023-02-15T20:10:28.088Z,96331.60
2023-02-15T20:12:55.457Z,96327.20
2023-02-15T20:15:27.218Z,96321.00
2023-02-15T20:17:54.351Z,96319.80
2023-02-15T20:20:23.286Z,96318.20
2023-02-15T20:22:51.938Z,96318.20
2023-02-15T20:25:31.153Z,96315.20
2023-02-15T20:27:59.494Z,96318.80
2023-02-15T20:30:32.709Z,96313.00
2023-02-15T20:32:59.425Z,96312.20
2023-02-15T20:35:28.897Z,96309.60
2023-02-15T20:38:00.479Z,96303.20
2023-02-15T20:40:33.491Z,96307.60
2023-02-15T20:43:01.276Z,96306.80
2023-02-15T20:45:32.014Z,96303.20
2023-02-15T20:48:01.888Z,96306.20
2023-02-15T20:50:32.262Z,96307.20
2023-02-15T20:53:02.538Z,96305.60
2023-02-15T20:55:32.067Z,96308.20
2023-02-15T20:57:59.632Z,96307.20
2023-02-15T21:00:30.705Z,96303.60
2023-02-15T21:03:00.672Z,96306.60
2023-02-15T21:05:33.486Z,96307.00
2023-02-15T21:08:00.158Z,96313.00
2023-02-15T21:10:30.728Z,96312.60
2023-02-15T21:13:00.204Z,96315.20
2023-02-15T21:15:41.163Z,96310.80
2023-02-15T21:18:20.216Z,96311.40
2023-02-15T21:20:52.273Z,96314.20
2023-02-15T21:23:24.117Z,96317.80
2023-02-15T21:25:50.870Z,96316.80
2023-02-15T21:28:23.133Z,96318.20
2023-02-15T21:30:51.490Z,96312.60
2023-02-15T21:33:18.596Z,96312.60
2023-02-15T21:35:49.775Z,96309.20
2023-02-15T21:38:20.936Z,96311.60
2023-02-15T21:40:49.089Z,96314.20
2023-02-15T21:43:39.441Z,96314.40
2023-02-15T21:46:56.976Z,96314.80
2023-02-15T21:49:23.582Z,96312.20
2023-02-15T21:52:19.426Z,96313.00
2023-02-15T21:54:46.206Z,96314.80
2023-02-15T21:57:17.461Z,96314.80
2023-02-15T21:59:44.518Z,96315.60
2023-02-15T22:02:29.834Z,96312.40
2023-02-15T22:04:58.576Z,96308.20
2023-02-15T22:07:25.129Z,96312.20
2023-02-15T22:09:51.686Z,96311.00
2023-02-15T22:12:19.518Z,96312.20
2023-02-15T22:14:54.798Z,96312.20
2023-02-15T22:17:25.616Z,96310.20
2023-02-15T22:19:52.772Z,96309.80
2023-02-15T22:22:19.431Z,96308.40
2023-02-15T22:24:47.008Z,96305.80
2023-02-15T22:27:26.102Z,96301.40
2023-02-15T22:29:54.123Z,96299.00
2023-02-15T22:32:26.360Z,96291.00
2023-02-15T22:34:56.862Z,96290.20
2023-02-15T22:37:23.539Z,96282.20
2023-02-15T22:39:50.126Z,96283.00
2023-02-15T22:42:27.460Z,96280.40
2023-02-15T22:44:57.082Z,96275.40
2023-02-15T22:47:28.163Z,96277.40
2023-02-15T22:49:55.097Z,96279.60
2023-02-15T22:52:22.396Z,96273.00
2023-02-15T22:54:49.025Z,96274.80
2023-02-15T22:57:25.708Z,96268.00
2023-02-15T22:59:52.282Z,96267.00
2023-02-15T23:02:18.804Z,96264.60
2023-02-15T23:04:45.424Z,96261.00
2023-02-15T23:07:19.114Z,96255.60
2023-02-15T23:09:46.373Z,96252.60
2023-02-15T23:12:27.405Z,96257.00
2023-02-15T23:14:54.564Z,96257.20
2023-02-15T23:17:21.543Z,96261.20
2023-02-15T23:19:48.184Z,96262.00
2023-02-15T23:22:16.908Z,96261.60
2023-02-15T23:24:51.973Z,96260.00
2023-02-15T23:27:37.680Z,96260.80
2023-02-15T23:30:15.165Z,96265.80
2023-02-15T23:32:41.826Z,96267.20
2023-02-15T23:35:17.328Z,96265.20
2023-02-15T23:37:44.007Z,96267.80
2023-02-15T23:40:37.579Z,96267.40
2023-02-15T23:43:05.659Z,96270.60
2023-02-15T23:45:37.123Z,96268.00
2023-02-15T23:48:22.919Z,96261.40
2023-02-15T23:50:49.533Z,96258.40
2023-02-15T23:53:16.074Z,96257.20
2023-02-15T23:55:45.628Z,96254.00
2023-02-15T23:58:18.341Z,96256.00
